TFM - Tactical Decision Aid
ID: Runway Winds: CIG/VIS Threshold:

KBFF - Scottsbluff/Western, NE, US

Updated at: 1400 UTC 27 Nov 2021
Latest TAF at: 1140 UTC 27 Nov 2021

TAF Board

Time1353Z 27/14Z 27/15Z 27/16Z 27/17Z 27/18Z 27/19Z 27/20Z 27/21Z 27/22Z 27/23Z 28/00Z 28/01Z 28/02Z>>
Type OBS PRVL PRVL PRVL PRVL PRVL PRVL PRVL PRVL PRVL PRVL PRVL PRVL PRVL
VIS 10 >6 >6 >6 >6 >6 >6 >6 >6 >6 >6 >6 >6 >6
CIG -- -- -- -- 250 250 250 250 250 250 250 250 250 250
Cover CLR SCT SCT SCT BKN BKN BKN BKN BKN BKN BKN BKN BKN BKN
FltCat VFR VFR VFR VFR VFR VFR VFR VFR VFR VFR VFR VFR VFR VFR
WX -- -- -- -- -- -- -- -- -- -- -- -- -- --
WDir 320 310 310 310 320 320 320 320 320 320 340 340 340 340
WSpd 6 8 8 8 15 15 15 15 15 15 6 6 6 6
WGst -- -- -- -- 21 21 21 21 21 21 -- -- -- --
WSHgt -- -- -- -- -- -- -- -- -- -- -- -- -- --
WSDir -- -- -- -- -- -- -- -- -- -- -- -- -- --
WSSpd -- -- -- -- -- -- -- -- -- -- -- -- -- --

TDA Impact Legend

  None Marginal Slight Moderate High
Visibility (sm) >5 3≤X≤5 2≤X<3 0.5≤X<2 <0.5
Ceiling (100 ft) >30 10≤X≤30 6≤X<10 2≤X<6 <2
Wind Speed (kt) <15 15≤X<25 25≤X<30 ≥30
Wind Gust (kt) <15 15≤X<25 25≤X<35 ≥35
Weather No Wx Reported VCTS -TS,-FZRA TS,FZRA +TS,+FZRA
TAF
KBFF 271140Z 2712/2812 31008KT P6SM SCT250
  FM271700 32015G21KT P6SM BKN250
  FM272300 34006KT P6SM BKN250
  FM280300 11005KT P6SM SCT250


METAR
KBFF 271353Z AUTO 32006KT 10SM CLR M02/M10 A3017 RMK AO2 SLP224 T10221100
KBFF 271253Z AUTO 32007KT 10SM CLR M01/M10 A3016 RMK AO2 SLP216 T10111100
KBFF 271153Z AUTO 31009KT 10SM CLR 01/M11 A3013 RMK AO2 SLP204 T00061106 10044 20000 53020
KBFF 271053Z AUTO 30008KT 10SM CLR 00/M11 A3010 RMK AO2 SLP190 T00001106

Radar Display
Forecast Discussion